Terminal Aerodrome Forecast
Issued by NWS Upton, NY

Current Version | Previous Version | Text Only | Print | Product List | Glossary On
Versions: 1 2 3 4 5 6 7 8 9 10 11 12 13 14 15 16 17 18 19 20 21 22 23 24 25 26 27 28 29 30 31 32 33 34 35
000
FTUS41 KOKX 232038 AAC
TAFJFK
TAF AMD
KJFK 232038Z 2321/2424 19006KT P6SM SCT015
     FM240000 20009KT 4SM BR BKN006
     FM240400 19005KT 3SM BR BKN004
     FM240600 18004KT 1/2SM FG OVC004
      TEMPO 2408/2412 1/4SM FG OVC002
     FM241500 18007KT 3SM BR SCT005 BKN010
     FM241800 19009KT 6SM BR BKN020=

USA.gov is the U.S. government's official web portal to all federal, state and local government web resources and services.